createdAt,value
2016-11-19T00:00:28.173Z,8.54
2016-11-19T00:01:38.225Z,8.61
2016-11-19T00:02:48.573Z,8.58
2016-11-19T00:03:58.633Z,8.43
2016-11-19T00:05:08.685Z,8.57
2016-11-19T00:06:18.740Z,8.43
2016-11-19T00:07:28.849Z,8.6
2016-11-19T00:08:39.194Z,8.64
2016-11-19T00:09:49.551Z,8.61
2016-11-19T00:10:59.909Z,8.54
2016-11-19T00:12:10.244Z,8.57
2016-11-19T00:13:20.587Z,8.6
2016-11-19T00:14:30.618Z,8.54
2016-11-19T00:15:40.364Z,8.54
2016-11-19T00:16:50.381Z,8.58
2016-11-19T00:18:00.723Z,8.52
2016-11-19T00:19:11.055Z,8.54
2016-11-19T00:20:21.069Z,8.5
2016-11-19T00:21:31.411Z,8.52
2016-11-19T00:22:41.736Z,8.4
2016-11-19T00:23:52.082Z,8.44
2016-11-19T00:25:02.417Z,8.39
2016-11-19T00:26:12.747Z,8.32
2016-11-19T00:27:23.062Z,8.31
2016-11-19T00:28:33.098Z,8.34
2016-11-19T00:29:43.163Z,8.34
2016-11-19T00:30:53.547Z,8.17
2016-11-19T00:32:03.889Z,8.31
2016-11-19T00:33:13.951Z,8.31
2016-11-19T00:34:24.306Z,8.26
2016-11-19T00:35:34.660Z,8.35
2016-11-19T00:36:45.006Z,8.19
2016-11-19T00:37:55.339Z,8.28
2016-11-19T00:39:05.891Z,8.28
2016-11-19T00:40:16.242Z,8.11
2016-11-19T00:41:26.654Z,8.26
2016-11-19T00:42:37.020Z,8.36
2016-11-19T00:43:46.758Z,8.26
2016-11-19T00:44:57.127Z,8.4
2016-11-19T00:46:07.466Z,8.34
2016-11-19T00:47:17.813Z,8.36
2016-11-19T00:48:27.846Z,8.39
2016-11-19T00:49:38.211Z,8.44
2016-11-19T00:50:48.277Z,8.44
2016-11-19T00:51:58.341Z,8.47
2016-11-19T00:53:08.683Z,8.6
2016-11-19T00:54:18.392Z,8.57
2016-11-19T00:55:28.120Z,8.57
2016-11-19T00:56:38.457Z,8.69
2016-11-19T00:57:48.159Z,8.54
2016-11-19T00:58:58.519Z,8.54
2016-11-19T01:00:08.881Z,8.53
2016-11-19T01:01:19.218Z,8.57
2016-11-19T01:02:29.274Z,8.57
2016-11-19T01:03:39.638Z,8.6
2016-11-19T01:04:49.649Z,8.57
2016-11-19T01:06:00.010Z,8.57
2016-11-19T01:07:10.388Z,8.53
2016-11-19T01:08:20.880Z,8.61
2016-11-19T01:09:31.417Z,8.62
2016-11-19T01:10:41.496Z,8.57
2016-11-19T01:11:51.560Z,8.54
2016-11-19T01:13:01.914Z,8.64
2016-11-19T01:14:12.272Z,8.53
2016-11-19T01:15:22.677Z,8.6
2016-11-19T01:16:33.030Z,8.6
2016-11-19T01:17:43.389Z,8.69
2016-11-19T01:18:53.753Z,8.77
2016-11-19T01:20:03.807Z,8.67
2016-11-19T01:21:13.838Z,8.74
2016-11-19T01:22:24.186Z,8.8
2016-11-19T01:23:34.526Z,8.74
2016-11-19T01:24:44.853Z,8.87
2016-11-19T01:25:54.881Z,8.74
2016-11-19T01:27:05.262Z,8.82
2016-11-19T01:28:15.585Z,8.67
2016-11-19T01:29:25.922Z,8.68
2016-11-19T01:30:36.266Z,8.6
2016-11-19T01:31:46.280Z,8.61
2016-11-19T01:32:56.626Z,8.62
2016-11-19T01:34:06.953Z,8.71
2016-11-19T01:35:17.345Z,8.74
2016-11-19T01:36:27.375Z,8.67
2016-11-19T01:37:37.399Z,8.67
2016-11-19T01:38:47.429Z,8.71
2016-11-19T01:39:57.777Z,8.71
2016-11-19T01:41:08.125Z,8.69
2016-11-19T01:42:18.486Z,8.65
2016-11-19T01:43:28.518Z,8.68
2016-11-19T01:44:38.844Z,8.72
2016-11-19T01:45:49.180Z,8.69
2016-11-19T01:46:59.527Z,8.74
2016-11-19T01:48:09.242Z,8.72
2016-11-19T01:49:19.581Z,8.67
2016-11-19T01:50:29.605Z,8.65
2016-11-19T01:51:39.928Z,8.6
2016-11-19T01:52:50.250Z,8.57
2016-11-19T01:54:00.283Z,8.54
2016-11-19T01:55:09.999Z,8.47
2016-11-19T01:56:20.330Z,8.49
2016-11-19T01:57:30.650Z,8.58
2016-11-19T01:58:41.033Z,8.54
2016-11-19T01:59:51.371Z,8.68
2016-11-19T02:01:01.742Z,8.71
2016-11-19T02:02:12.082Z,8.69
2016-11-19T02:03:22.434Z,8.69
2016-11-19T02:04:32.456Z,8.76
2016-11-19T02:05:42.786Z,8.79
2016-11-19T02:06:53.120Z,8.74
2016-11-19T02:08:03.460Z,8.77
2016-11-19T02:09:13.799Z,8.8
2016-11-19T02:10:23.884Z,8.8
2016-11-19T02:11:34.251Z,8.98
2016-11-19T02:12:44.282Z,8.92
2016-11-19T02:13:54.309Z,8.94
2016-11-19T02:15:04.646Z,9
2016-11-19T02:16:15.015Z,8.92
2016-11-19T02:17:25.034Z,8.9
2016-11-19T02:18:35.398Z,8.95
2016-11-19T02:19:45.733Z,8.92
2016-11-19T02:20:55.448Z,8.94
2016-11-19T02:22:05.792Z,9.09
2016-11-19T02:23:16.169Z,9.09
2016-11-19T02:24:26.495Z,9.12
2016-11-19T02:25:36.511Z,9.17
2016-11-19T02:26:46.874Z,9.05
2016-11-19T02:27:57.225Z,9.12
2016-11-19T02:29:07.248Z,9.21
2016-11-19T02:30:17.586Z,9.23
2016-11-19T02:31:27.954Z,9.2
2016-11-19T02:32:38.283Z,9.27
2016-11-19T02:33:48.609Z,9.32
2016-11-19T02:34:58.936Z,9.39
2016-11-19T02:36:09.271Z,9.35
2016-11-19T02:37:19.604Z,9.27
2016-11-19T02:38:29.621Z,9.3
2016-11-19T02:39:39.019Z,9.37
2016-11-19T02:40:49.359Z,9.44
2016-11-19T02:41:59.729Z,9.42
2016-11-19T02:43:09.752Z,9.41
2016-11-19T02:44:20.073Z,9.38
2016-11-19T02:45:30.448Z,9.38
2016-11-19T02:46:40.793Z,9.37
2016-11-19T02:47:51.127Z,9.47
2016-11-19T02:49:01.461Z,9.47
2016-11-19T02:50:11.472Z,9.57
2016-11-19T02:51:21.800Z,9.52
2016-11-19T02:52:31.826Z,9.52
2016-11-19T02:53:42.157Z,9.59
2016-11-19T02:54:52.759Z,9.57
2016-11-19T02:56:03.084Z,9.57
2016-11-19T02:57:13.404Z,9.63
2016-11-19T02:58:23.426Z,9.56
2016-11-19T02:59:33.748Z,9.6
2016-11-19T03:00:43.788Z,9.63
2016-11-19T03:32:22.979Z,6.51
2016-11-19T03:33:33.002Z,6.54
2016-11-19T03:34:42.699Z,6.55
2016-11-19T03:35:53.028Z,6.55
2016-11-19T03:37:03.376Z,6.7
2016-11-19T03:38:13.709Z,6.73
2016-11-19T03:39:24.026Z,6.9
2016-11-19T03:40:34.347Z,7.08
2016-11-19T03:41:44.673Z,7.21
2016-11-19T03:42:55.007Z,7.34
2016-11-19T03:44:05.369Z,7.49
2016-11-19T03:45:15.704Z,7.58
2016-11-19T03:46:25.097Z,7.77
2016-11-19T03:47:35.121Z,7.96
2016-11-19T03:48:45.149Z,7.99
2016-11-19T03:49:54.891Z,8.17
2016-11-19T03:51:05.228Z,8.14
2016-11-19T03:52:15.584Z,8.28
2016-11-19T03:53:25.924Z,8.39
2016-11-19T03:54:36.262Z,8.5
2016-11-19T03:55:46.014Z,8.53
2016-11-19T03:56:55.727Z,8.65
2016-11-19T03:58:06.067Z,8.72
2016-11-19T03:59:16.415Z,8.8
2016-11-19T04:00:26.742Z,8.85
2016-11-19T04:01:37.082Z,8.94
2016-11-19T04:02:47.419Z,8.92
2016-11-19T04:03:57.437Z,9.04
2016-11-19T04:05:07.782Z,9
2016-11-19T04:06:17.803Z,9.08
2016-11-19T04:07:28.132Z,9.01
2016-11-19T04:08:38.452Z,9.01
2016-11-19T04:09:48.774Z,9.14
2016-11-19T04:10:59.127Z,9.05
2016-11-19T04:12:09.164Z,9.08
2016-11-19T04:13:19.540Z,9.05
2016-11-19T04:14:29.242Z,9.14
2016-11-19T04:15:39.573Z,9.11
2016-11-19T04:16:49.905Z,9.17
2016-11-19T04:18:00.263Z,9.05
2016-11-19T04:19:10.596Z,9.23
2016-11-19T04:20:20.296Z,9.14
2016-11-19T04:21:30.617Z,9.34
2016-11-19T04:22:40.963Z,9.2
2016-11-19T04:23:50.670Z,9.24
2016-11-19T04:25:00.686Z,9.34
2016-11-19T04:26:11.010Z,9.38
2016-11-19T04:27:21.335Z,9.3
2016-11-19T04:28:31.666Z,9.44
2016-11-19T04:29:41.373Z,9.41
2016-11-19T04:30:51.735Z,9.48
2016-11-19T04:32:02.066Z,9.41
2016-11-19T11:47:35.009Z,17.69
2016-11-19T11:48:45.050Z,17.76
2016-11-19T11:49:55.420Z,17.79
2016-11-19T11:51:05.563Z,17.79
2016-11-19T11:52:15.910Z,17.8
2016-11-19T11:53:25.950Z,17.8
2016-11-19T11:54:36.003Z,17.77
2016-11-19T11:55:46.039Z,17.76
2016-11-19T11:56:56.386Z,17.79
2016-11-19T11:58:06.459Z,17.79
2016-11-19T11:59:16.484Z,17.79
2016-11-19T12:00:26.195Z,17.8
2016-11-19T12:01:36.555Z,17.74
2016-11-19T12:02:46.613Z,17.84
2016-11-19T12:03:56.957Z,17.69
2016-11-19T12:05:06.697Z,17.73
2016-11-19T12:06:17.031Z,17.81
2016-11-19T12:07:27.367Z,17.76
2016-11-19T12:08:37.094Z,17.8
2016-11-19T12:09:47.426Z,17.8
2016-11-19T12:10:57.762Z,17.79
2016-11-19T12:12:07.794Z,17.71
2016-11-19T12:13:18.195Z,17.76
2016-11-19T12:14:28.212Z,17.68
2016-11-19T12:15:38.557Z,17.63
2016-11-19T12:16:48.590Z,17.77
2016-11-19T12:17:58.972Z,17.71
2016-11-19T12:19:09.309Z,17.69
2016-11-19T12:20:19.646Z,17.71
2016-11-19T12:21:30.000Z,17.66
2016-11-19T12:22:40.036Z,17.8
2016-11-19T12:23:50.408Z,17.76
2016-11-19T12:25:00.772Z,17.8
2016-11-19T12:26:10.482Z,17.92
2016-11-19T12:27:20.521Z,17.96
2016-11-19T12:28:30.552Z,17.98
2016-11-19T12:29:40.903Z,18.01
2016-11-19T12:30:51.243Z,17.83
2016-11-19T12:32:01.583Z,17.9
2016-11-19T12:33:11.934Z,17.88
2016-11-19T12:34:22.276Z,17.9
2016-11-19T12:35:32.333Z,17.9
2016-11-19T12:36:42.389Z,17.79
2016-11-19T12:37:52.723Z,17.84
2016-11-19T12:39:02.773Z,17.94
2016-11-19T12:40:13.121Z,17.86
2016-11-19T12:41:23.140Z,17.81
2016-11-19T12:42:33.517Z,17.88
2016-11-19T12:43:43.869Z,17.83
2016-11-19T12:44:54.241Z,17.84
2016-11-19T12:46:04.257Z,17.9
2016-11-19T12:47:14.285Z,17.98
2016-11-19T12:48:24.311Z,18.05
2016-11-19T12:49:34.648Z,18.1
2016-11-19T12:50:45.228Z,18.1
2016-11-19T12:51:55.560Z,18.17
2016-11-19T12:53:05.894Z,18.17
2016-11-19T12:54:16.240Z,18.17
2016-11-19T12:55:26.593Z,18.34
2016-11-19T12:56:36.013Z,18.34
2016-11-19T12:57:46.359Z,18.49
2016-11-19T12:58:56.704Z,18.5
2016-11-19T13:00:07.073Z,18.51
2016-11-19T13:01:17.423Z,18.54
2016-11-19T13:02:27.781Z,18.59
2016-11-19T13:03:38.127Z,18.78
2016-11-19T13:04:48.459Z,18.9
2016-11-19T13:05:58.800Z,18.96
2016-11-19T13:07:08.856Z,19.23
2016-11-19T13:08:19.203Z,19.32
2016-11-19T13:09:29.541Z,19.49
2016-11-19T13:10:39.891Z,19.72
2016-11-19T13:11:50.249Z,19.85
2016-11-19T13:13:00.280Z,19.95
2016-11-19T13:14:10.662Z,19.97
2016-11-19T13:15:21.008Z,20.08
2016-11-19T13:16:31.064Z,20.05
2016-11-19T13:17:41.111Z,20.07
2016-11-19T13:18:51.146Z,20.1
2016-11-19T13:20:01.490Z,20.01
2016-11-19T13:21:11.832Z,19.98
2016-11-19T13:22:21.856Z,20.05
2016-11-19T13:23:32.200Z,19.97
2016-11-19T13:24:42.559Z,19.95
2016-11-19T13:25:52.954Z,19.95
2016-11-19T13:27:02.997Z,19.95
2016-11-19T13:28:13.333Z,19.92
2016-11-19T13:29:23.369Z,19.95
2016-11-19T13:30:33.722Z,19.98
2016-11-19T13:31:43.744Z,19.98
2016-11-19T13:32:54.084Z,19.98
2016-11-19T13:34:04.421Z,20
2016-11-19T13:35:14.774Z,19.98
2016-11-19T13:36:25.152Z,19.93
2016-11-19T13:37:35.178Z,19.95
2016-11-19T13:38:45.519Z,19.89
2016-11-19T13:39:55.877Z,19.87
2016-11-19T13:41:06.218Z,19.8
2016-11-19T13:42:15.944Z,19.8
2016-11-19T13:43:25.964Z,19.61
2016-11-19T13:44:35.693Z,19.56
2016-11-19T13:45:46.035Z,19.56
2016-11-19T13:46:55.740Z,19.55
2016-11-19T13:48:05.453Z,19.5
2016-11-19T13:49:15.184Z,19.53
2016-11-19T13:50:25.211Z,19.5
2016-11-19T13:51:35.563Z,19.49
2016-11-19T13:52:45.924Z,19.37
2016-11-19T13:53:56.279Z,19.45
2016-11-19T13:55:06.629Z,19.37
2016-11-19T13:56:16.979Z,19.28
2016-11-19T13:57:27.318Z,19.24
2016-11-19T13:58:37.689Z,19.05
2016-11-19T13:59:48.273Z,19.15
2016-11-19T14:00:58.317Z,18.96
2016-11-19T14:02:08.659Z,18.96
2016-11-19T14:03:18.992Z,18.86
2016-11-19T14:04:28.722Z,18.91
2016-11-19T14:05:39.060Z,18.87
2016-11-19T14:06:49.107Z,18.91
2016-11-19T14:07:59.474Z,18.87
2016-11-19T14:09:09.819Z,18.9
2016-11-19T14:10:19.886Z,18.82
2016-11-19T14:11:30.219Z,18.82
2016-11-19T14:12:40.252Z,18.87
2016-11-19T14:13:50.602Z,18.91
2016-11-19T14:15:00.319Z,18.91
2016-11-19T14:16:10.045Z,18.9
2016-11-19T14:17:20.413Z,18.86
2016-11-19T14:18:30.442Z,18.82
2016-11-19T14:19:40.785Z,18.81
2016-11-19T14:20:50.807Z,18.74
2016-11-19T14:22:01.163Z,18.75
2016-11-19T14:23:11.510Z,18.78
2016-11-19T14:24:21.536Z,18.76
2016-11-19T14:25:31.881Z,18.82
2016-11-19T14:26:41.926Z,18.71
2016-11-19T14:27:52.275Z,18.75
2016-11-19T14:29:02.302Z,18.68
2016-11-19T14:30:12.017Z,18.71
2016-11-19T14:31:22.356Z,18.74
2016-11-19T14:32:32.693Z,18.63
2016-11-19T14:33:42.425Z,18.71
2016-11-19T14:34:52.774Z,18.61
2016-11-19T14:36:03.108Z,18.61
2016-11-19T14:37:13.584Z,18.57
2016-11-19T14:38:23.940Z,18.57
2016-11-19T14:39:33.968Z,18.54
2016-11-19T14:40:44.335Z,18.56
2016-11-19T14:41:54.453Z,18.59
2016-11-19T14:43:04.858Z,18.59
2016-11-19T14:44:14.894Z,18.54
2016-11-19T14:45:25.290Z,18.56
2016-11-19T14:46:35.657Z,18.6
2016-11-19T14:47:46.022Z,18.61
2016-11-19T14:48:56.261Z,18.56
2016-11-19T14:50:06.715Z,18.57
2016-11-19T14:51:17.166Z,18.56
2016-11-19T14:52:27.526Z,18.57
2016-11-19T14:53:37.576Z,18.51
2016-11-19T14:54:48.035Z,18.45
2016-11-19T14:55:58.093Z,18.54
2016-11-19T14:57:08.697Z,18.59
2016-11-19T14:58:19.099Z,18.56
2016-11-19T14:59:29.215Z,18.59
2016-11-19T15:00:39.340Z,18.56
2016-11-19T15:01:49.746Z,18.6
2016-11-19T15:02:59.502Z,18.51
2016-11-19T15:04:09.916Z,18.53
2016-11-19T15:05:20.348Z,18.53
2016-11-19T15:06:30.416Z,18.56
2016-11-19T15:07:40.808Z,18.5
2016-11-19T15:08:50.534Z,18.5
2016-11-19T15:10:00.560Z,18.49
2016-11-19T15:11:10.918Z,18.41
2016-11-19T15:12:21.274Z,18.5
2016-11-19T15:13:31.671Z,18.54
2016-11-19T15:14:42.022Z,18.45
2016-11-19T15:15:52.402Z,18.54
2016-11-19T15:17:02.761Z,18.44
2016-11-19T15:18:12.481Z,18.5
2016-11-19T15:19:22.867Z,18.5
2016-11-19T15:20:33.222Z,18.45
2016-11-19T15:21:43.582Z,18.5
2016-11-19T15:22:53.952Z,18.45
2016-11-19T15:24:04.340Z,18.44
2016-11-19T15:25:14.370Z,18.47
2016-11-19T15:26:24.726Z,18.39
2016-11-19T15:27:35.115Z,18.49
2016-11-19T15:28:45.576Z,18.38
2016-11-19T15:29:55.600Z,18.21
2016-11-19T15:31:06.016Z,18.06
2016-11-19T15:32:16.442Z,17.86
2016-11-19T15:33:26.819Z,17.65
2016-11-19T15:34:37.189Z,17.46
2016-11-19T15:35:47.538Z,17.18
2016-11-19T15:36:57.609Z,17.1
2016-11-19T15:38:08.000Z,16.77
2016-11-19T15:39:18.648Z,16.58
2016-11-19T15:40:28.991Z,16.45
2016-11-19T15:41:39.381Z,16.34
2016-11-19T15:42:49.734Z,16.18
2016-11-19T15:43:59.448Z,15.99
2016-11-19T15:45:09.801Z,15.92
2016-11-19T15:46:20.166Z,15.83
2016-11-19T15:47:30.546Z,15.6
2016-11-19T15:48:41.091Z,15.44
2016-11-19T15:49:51.155Z,15.43
2016-11-19T15:51:01.640Z,15.31
2016-11-19T15:52:11.705Z,15.25
2016-11-19T15:53:22.115Z,15.25
2016-11-19T15:54:32.518Z,15.13
2016-11-19T15:55:42.884Z,15.07
2016-11-19T15:56:53.261Z,15.01
2016-11-19T15:58:03.681Z,14.93
2016-11-19T15:59:14.044Z,14.9
2016-11-19T16:00:24.109Z,14.79
2016-11-19T16:01:34.505Z,14.75
2016-11-19T16:02:44.888Z,14.71
2016-11-19T16:03:55.299Z,14.59
2016-11-19T16:05:05.727Z,14.7
2016-11-19T16:06:16.145Z,14.57
2016-11-19T16:07:26.554Z,14.57
2016-11-19T16:08:36.906Z,14.6
2016-11-19T16:09:47.274Z,14.53
2016-11-19T16:10:57.393Z,14.48
2016-11-19T16:12:07.785Z,14.45
2016-11-19T16:13:18.194Z,14.45
2016-11-19T16:14:28.637Z,14.49
2016-11-19T16:15:39.038Z,14.41
2016-11-19T16:16:49.415Z,14.45
2016-11-19T16:17:59.814Z,14.45
2016-11-19T16:19:09.982Z,14.44
2016-11-19T16:20:20.335Z,14.31
2016-11-19T16:21:30.743Z,14.31
2016-11-19T16:22:41.118Z,14.27
2016-11-19T16:23:51.703Z,14.15
2016-11-19T16:25:02.065Z,14.15
2016-11-19T16:26:12.429Z,14.15
2016-11-19T16:27:22.532Z,14.06
2016-11-19T16:28:32.557Z,14.05
2016-11-19T16:29:42.909Z,13.93
2016-11-19T16:30:53.274Z,13.86
2016-11-19T16:32:03.640Z,13.95
2016-11-19T16:33:14.097Z,13.86
2016-11-19T16:34:24.142Z,13.81
2016-11-19T16:35:34.508Z,13.79
2016-11-19T16:36:44.545Z,13.73
2016-11-19T16:37:55.025Z,13.58
2016-11-19T16:39:05.106Z,13.6
2016-11-19T16:40:15.462Z,13.54
2016-11-19T16:41:25.892Z,13.6
2016-11-19T16:42:36.241Z,13.5
2016-11-19T16:43:46.583Z,13.54
2016-11-19T16:44:56.983Z,13.5
2016-11-19T16:46:07.357Z,13.51
2016-11-19T16:47:17.399Z,13.5
2016-11-19T16:48:27.774Z,13.45
2016-11-19T16:49:38.099Z,13.45
2016-11-19T16:50:48.130Z,13.31
2016-11-19T16:51:58.549Z,13.21
2016-11-19T16:53:08.629Z,13.16
2016-11-19T16:54:18.968Z,13.14
2016-11-19T16:55:29.331Z,13.14
2016-11-19T16:56:39.674Z,13.11
2016-11-19T16:57:50.005Z,13.13
2016-11-19T16:59:00.368Z,13.13
2016-11-19T17:00:10.437Z,13.09
2016-11-19T17:01:20.787Z,13.11
2016-11-19T17:02:31.164Z,13.07
2016-11-19T17:03:41.293Z,13.06
2016-11-19T17:04:51.648Z,13.09
2016-11-19T17:06:02.019Z,13.11
2016-11-19T17:07:12.388Z,13.14
2016-11-19T17:08:22.725Z,13.16
2016-11-19T17:09:33.087Z,13.17
2016-11-19T17:10:43.461Z,13.25
2016-11-19T17:11:53.537Z,13.25
2016-11-19T17:13:03.909Z,13.24
2016-11-19T17:14:14.257Z,13.36
2016-11-19T17:15:24.603Z,13.32
2016-11-19T17:16:34.645Z,13.39
2016-11-19T17:17:44.993Z,13.4
2016-11-19T17:18:55.029Z,13.37
2016-11-19T17:20:05.278Z,13.35
2016-11-19T17:21:15.344Z,13.44
2016-11-19T17:22:25.386Z,13.31
2016-11-19T17:23:35.454Z,13.45
2016-11-19T17:24:45.808Z,13.45
2016-11-19T17:25:55.562Z,13.45
2016-11-19T17:27:05.899Z,13.47
2016-11-19T17:28:16.262Z,13.5
2016-11-19T17:29:26.602Z,13.51
2016-11-19T17:30:36.627Z,13.5
2016-11-19T17:31:46.970Z,13.47
2016-11-19T17:32:57.337Z,13.5
2016-11-19T17:34:07.728Z,13.54
2016-11-19T17:35:18.095Z,13.53
2016-11-19T17:36:28.453Z,13.5
2016-11-19T17:37:38.833Z,13.5
2016-11-19T17:38:49.187Z,13.51
2016-11-19T17:39:59.258Z,13.51
2016-11-19T17:41:09.303Z,13.53
2016-11-19T17:42:19.646Z,13.54
2016-11-19T17:43:29.676Z,13.54
2016-11-19T17:44:40.039Z,13.51
2016-11-19T17:45:50.404Z,13.5
2016-11-19T17:47:00.772Z,13.5
2016-11-19T17:48:10.802Z,13.55
2016-11-19T17:49:21.178Z,13.53
2016-11-19T17:50:31.527Z,13.54
2016-11-19T17:51:41.885Z,13.51
2016-11-19T17:52:52.266Z,13.51
2016-11-19T17:54:02.631Z,13.55
2016-11-19T17:55:12.980Z,13.51
2016-11-19T17:56:23.324Z,13.51
2016-11-19T17:57:33.368Z,13.47
2016-11-19T17:58:43.909Z,13.45
2016-11-19T17:59:53.941Z,13.47
2016-11-19T18:01:04.322Z,13.36
2016-11-19T18:02:14.364Z,13.4
2016-11-19T18:03:24.410Z,13.39
2016-11-19T18:04:34.455Z,13.36
2016-11-19T18:05:44.798Z,13.4
2016-11-19T18:06:55.151Z,13.36
2016-11-19T18:08:05.464Z,13.5
2016-11-19T18:09:15.812Z,13.39
2016-11-19T18:10:25.864Z,13.36
2016-11-19T18:11:36.240Z,13.36
2016-11-19T18:12:46.596Z,13.4
2016-11-19T18:13:56.965Z,13.35
2016-11-19T18:15:07.328Z,13.35
2016-11-19T18:16:16.770Z,13.39
2016-11-19T18:17:26.815Z,13.35
2016-11-19T18:18:37.167Z,13.36
2016-11-19T18:19:47.459Z,13.32
2016-11-19T18:20:57.811Z,13.39
2016-11-19T18:22:08.173Z,13.32
2016-11-19T18:23:18.243Z,13.29
2016-11-19T18:24:28.606Z,13.36
2016-11-19T18:25:38.956Z,13.37
2016-11-19T18:26:49.331Z,13.35
2016-11-19T18:27:59.387Z,13.32
2016-11-19T18:29:09.746Z,13.35
2016-11-19T18:30:20.125Z,13.28
2016-11-19T18:31:30.171Z,13.31
2016-11-19T18:32:40.255Z,13.31
2016-11-19T18:33:50.618Z,13.16
2016-11-19T18:35:00.670Z,13.17
2016-11-19T18:36:11.014Z,13.14
2016-11-19T18:37:21.364Z,13.16
2016-11-19T18:38:31.748Z,13.16
2016-11-19T18:39:41.798Z,13.11
2016-11-19T18:40:51.554Z,13.19
2016-11-19T18:42:01.920Z,13.06
2016-11-19T18:43:11.939Z,13.09
2016-11-19T18:44:22.324Z,13.03
2016-11-19T18:45:32.706Z,12.99
2016-11-19T18:46:43.130Z,12.99
2016-11-19T18:47:53.492Z,12.98
2016-11-19T18:49:03.223Z,12.99
2016-11-19T18:50:13.585Z,13.06
2016-11-19T18:51:23.947Z,13.06
2016-11-19T18:52:34.290Z,13.09
2016-11-19T18:53:44.653Z,13.02
2016-11-19T18:54:55.011Z,13.02
2016-11-19T18:56:05.404Z,13.06
2016-11-19T18:57:15.120Z,13.03
2016-11-19T18:58:25.496Z,13.02
2016-11-19T18:59:35.547Z,12.98
2016-11-19T19:00:45.893Z,12.92
2016-11-19T19:01:55.945Z,13.01
2016-11-19T19:03:05.980Z,13.03
2016-11-19T19:04:16.379Z,12.98
2016-11-19T19:05:26.735Z,12.91
2016-11-19T19:06:37.087Z,13.01
2016-11-19T19:07:46.839Z,12.96
2016-11-19T19:08:57.204Z,12.96
2016-11-19T19:10:07.555Z,12.92
2016-11-19T19:11:17.584Z,12.89
2016-11-19T19:12:27.939Z,12.91
2016-11-19T19:13:38.303Z,12.89
2016-11-19T19:14:48.672Z,12.89
2016-11-19T19:15:59.043Z,12.92
2016-11-19T19:17:09.482Z,12.81
2016-11-19T19:18:19.861Z,12.92
2016-11-19T19:19:30.224Z,12.89
2016-11-19T19:20:40.278Z,12.91
2016-11-19T19:21:50.492Z,12.8
2016-11-19T19:23:00.850Z,12.8
2016-11-19T19:24:11.240Z,12.74
2016-11-19T19:25:21.333Z,12.7
2016-11-19T19:26:31.694Z,12.77
2016-11-19T19:27:42.093Z,12.73
2016-11-19T19:28:52.467Z,12.73
2016-11-19T19:30:02.876Z,12.7
2016-11-19T19:31:13.266Z,12.56
2016-11-19T19:32:23.667Z,12.58
2016-11-19T19:33:34.072Z,12.65
2016-11-19T19:34:44.158Z,12.63
2016-11-19T19:35:54.284Z,12.55
2016-11-19T19:37:04.760Z,12.59
2016-11-19T19:38:14.852Z,12.61
2016-11-19T19:39:25.253Z,12.52
2016-11-19T19:40:35.612Z,12.55
2016-11-19T19:41:46.115Z,12.44
2016-11-19T19:42:56.546Z,12.52
2016-11-19T19:44:07.000Z,12.44
2016-11-19T19:45:17.392Z,12.45
2016-11-19T19:46:27.775Z,12.47
2016-11-19T19:47:37.952Z,12.44
2016-11-19T19:48:48.367Z,12.41
2016-11-19T19:49:58.400Z,12.41
2016-11-19T19:51:08.762Z,12.4
2016-11-19T19:52:19.131Z,12.36
2016-11-19T19:53:29.606Z,12.33
2016-11-19T19:54:39.782Z,12.34
2016-11-19T19:55:50.256Z,12.37
2016-11-19T19:56:59.666Z,12.33
2016-11-19T19:58:10.018Z,12.37
2016-11-19T19:59:20.468Z,12.37
2016-11-19T20:00:31.091Z,12.41
2016-11-19T20:01:41.626Z,12.44
2016-11-19T20:02:53.319Z,12.4
2016-11-19T20:04:04.980Z,12.43
2016-11-19T20:05:15.241Z,12.4
2016-11-19T20:06:25.900Z,12.41
2016-11-19T20:07:36.630Z,12.43
2016-11-19T20:08:46.682Z,12.36
2016-11-19T20:09:57.023Z,12.47
2016-11-19T20:11:07.731Z,12.47
2016-11-19T20:12:18.186Z,12.44
2016-11-19T20:13:28.613Z,12.48
2016-11-19T20:14:38.970Z,12.38
2016-11-19T20:15:49.600Z,12.38
2016-11-19T20:16:59.502Z,12.47
2016-11-19T20:18:09.821Z,12.41
2016-11-19T20:19:20.382Z,12.48
2016-11-19T20:20:30.859Z,12.37
2016-11-19T20:21:41.213Z,12.45
2016-11-19T20:22:51.702Z,12.48
2016-11-19T20:24:02.047Z,12.43
2016-11-19T20:25:12.615Z,12.41
2016-11-19T20:26:23.627Z,12.44
2016-11-19T20:27:34.512Z,12.4
2016-11-19T20:28:44.649Z,12.38
2016-11-19T20:29:54.795Z,12.36
2016-11-19T20:31:05.210Z,12.34
2016-11-19T20:32:15.526Z,12.25
2016-11-19T20:33:26.134Z,12.36
2016-11-19T20:34:36.847Z,12.36
2016-11-19T20:35:47.757Z,12.31
2016-11-19T20:36:58.597Z,12.36
2016-11-19T20:38:09.149Z,12.36
2016-11-19T20:39:19.820Z,12.28
2016-11-19T20:40:30.529Z,12.29
2016-11-19T20:41:40.963Z,12.34
2016-11-19T20:42:51.442Z,12.33
2016-11-19T20:44:01.758Z,12.34
2016-11-19T20:45:12.580Z,12.29
2016-11-19T20:46:23.336Z,12.33
2016-11-19T20:47:33.771Z,12.33
2016-11-19T20:48:44.274Z,12.33
2016-11-19T20:49:54.987Z,12.26
2016-11-19T20:51:05.591Z,12.16
2016-11-19T20:52:16.407Z,12.25
2016-11-19T20:53:26.959Z,12.19
2016-11-19T20:54:37.619Z,12.13
2016-11-19T20:55:48.401Z,12.22
2016-11-19T20:56:58.731Z,12.19
2016-11-19T20:58:09.395Z,12.23
2016-11-19T20:59:20.078Z,12.13
2016-11-19T21:00:30.702Z,12.16
2016-11-19T21:01:41.209Z,12.13
2016-11-19T21:02:51.587Z,12.11
2016-11-19T21:04:01.799Z,12.13
2016-11-19T21:05:12.056Z,12.11
2016-11-19T21:06:22.668Z,12.13
2016-11-19T21:07:33.199Z,12.19
2016-11-19T21:08:44.157Z,12.16
2016-11-19T21:09:54.684Z,12.11
2016-11-19T21:11:05.257Z,12.15
2016-11-19T21:12:15.724Z,12.13
2016-11-19T21:13:26.488Z,12.1
2016-11-19T21:14:36.809Z,12.03
2016-11-19T21:15:47.444Z,12.08
2016-11-19T21:16:57.595Z,12.1
2016-11-19T21:18:08.142Z,12.15
2016-11-19T21:19:18.681Z,12.13
2016-11-19T21:20:28.898Z,12.05
2016-11-19T21:21:39.396Z,12.15
2016-11-19T21:22:49.646Z,12.15
2016-11-19T21:24:00.086Z,12.15
2016-11-19T21:25:10.528Z,12.13
2016-11-19T21:26:20.666Z,12.15
2016-11-19T21:27:31.092Z,12.16
2016-11-19T21:28:41.611Z,12.13
2016-11-19T21:29:52.008Z,12.13
2016-11-19T21:31:02.475Z,12.08
2016-11-19T21:32:12.889Z,12.18
2016-11-19T21:33:23.010Z,12.16
2016-11-19T21:34:33.572Z,12.15
2016-11-19T21:35:43.770Z,12.19
2016-11-19T21:36:54.167Z,12.15
2016-11-19T21:38:04.225Z,12.08
2016-11-19T21:39:14.378Z,12.19
2016-11-19T21:40:25.100Z,12.16
2016-11-19T21:41:35.207Z,12.1
2016-11-19T21:42:45.612Z,12.05
2016-11-19T21:43:56.070Z,12.04
2016-11-19T21:45:06.912Z,12.01
2016-11-19T21:46:17.434Z,12.01
2016-11-19T21:47:27.505Z,12
2016-11-19T21:48:37.887Z,12
2016-11-19T21:49:48.259Z,12
2016-11-19T21:50:58.653Z,12.04
2016-11-19T21:52:08.746Z,12.08
2016-11-19T21:53:19.166Z,12.04
2016-11-19T21:54:29.608Z,12.04
2016-11-19T21:55:39.970Z,12.11
2016-11-19T21:56:50.343Z,12.04
2016-11-19T21:58:00.393Z,12.05
2016-11-19T21:59:10.752Z,11.95
2016-11-19T22:00:20.482Z,12.1
2016-11-19T22:01:30.867Z,12.03
2016-11-19T22:02:41.273Z,12.16
2016-11-19T22:03:51.649Z,12.15
2016-11-19T22:05:01.699Z,12.13
2016-11-19T22:06:12.104Z,12.13
2016-11-19T22:07:22.446Z,12.16
2016-11-19T22:08:32.506Z,12.08
2016-11-19T22:09:42.879Z,12.22
2016-11-19T22:10:52.959Z,12.23
2016-11-19T22:12:02.995Z,12.19
2016-11-19T22:13:13.356Z,12.13
2016-11-19T22:14:23.762Z,12.16
2016-11-19T22:15:34.125Z,12.15
2016-11-19T22:16:44.488Z,12.11
2016-11-19T22:17:54.557Z,12.2
2016-11-19T22:19:04.945Z,12.16
2016-11-19T22:20:15.359Z,12.11
2016-11-19T22:21:25.742Z,12.11
2016-11-19T22:22:36.110Z,12.16
2016-11-19T22:23:46.155Z,12.19
2016-11-19T22:24:56.526Z,12.26
2016-11-19T22:26:06.866Z,12.25
2016-11-19T22:27:16.595Z,12.22
2016-11-19T22:28:26.960Z,12.25
2016-11-19T22:29:37.014Z,12.19
2016-11-19T22:30:47.354Z,12.11
2016-11-19T22:31:57.936Z,12.2
2016-11-19T22:33:08.298Z,12.2
2016-11-19T22:34:18.647Z,12.11
2016-11-19T22:35:29.002Z,12.16
2016-11-19T22:36:39.392Z,12.08
2016-11-19T22:37:49.748Z,12.13
2016-11-19T22:39:00.109Z,12.18
2016-11-19T22:40:10.472Z,12.15
2016-11-19T22:41:20.216Z,12.22
2016-11-19T22:42:30.285Z,12.13
2016-11-19T22:43:40.664Z,12.23
2016-11-19T22:44:50.692Z,12.18
2016-11-19T22:46:00.738Z,12.11
2016-11-19T22:47:10.773Z,12.2
2016-11-19T22:48:20.813Z,12.22
2016-11-19T22:49:30.858Z,12.19
2016-11-19T22:50:40.596Z,12.22
2016-11-19T22:51:50.957Z,12.22
2016-11-19T22:53:01.364Z,12.25
2016-11-19T22:54:11.396Z,12.22
2016-11-19T22:55:21.431Z,12.2
2016-11-19T22:56:31.798Z,12.31
2016-11-19T22:57:42.153Z,12.22
2016-11-19T22:58:52.216Z,12.34
2016-11-19T23:00:02.586Z,12.36
2016-11-19T23:01:12.958Z,12.31